METAR Data
IDs: Format: Raw Decoded Include TAF

Data at: 1404 UTC 10 Aug 2022

KMHV 101340Z AUTO 26004KT 10SM CLR 23/06 A3007 RMK A01
KMHV 101320Z AUTO 25008KT 9SM CLR 22/06 A3007 RMK A01
KMHV 101300Z AUTO 25005KT 10SM CLR 22/06 A3006 RMK A01
KMHV 101240Z AUTO 25007KT 10SM CLR 23/06 A3005 RMK A01
KMHV 101220Z AUTO 24009KT 10SM CLR 23/06 A3005 RMK A01
KMHV 101200Z AUTO 24012KT 10SM CLR 23/07 A3005 RMK A01
KMHV 101140Z AUTO 23008KT 10SM CLR 23/07 A3005 RMK A01
KMHV 101120Z AUTO 23007KT 10SM CLR 23/07 A3005 RMK A01
KMHV 101100Z AUTO 22008KT 10SM CLR 24/07 A3005 RMK A01
KMHV 101040Z AUTO 24008KT 10SM CLR 24/07 A3005 RMK A01
KMHV 101020Z AUTO 23008KT 10SM CLR 25/08 A3005 RMK A01
KMHV 101000Z AUTO 25008KT 10SM CLR 25/08 A3005 RMK A01
KMHV 100940Z AUTO 23008KT 10SM CLR 25/08 A3005 RMK A01
KMHV 100920Z AUTO 23007KT 10SM CLR 25/08 A3005 RMK A01
KMHV 100900Z AUTO 24008KT 10SM CLR 26/08 A3005 RMK A01
KMHV 100840Z AUTO 25006KT 10SM CLR 26/08 A3004 RMK A01
KMHV 100820Z AUTO 28008KT 10SM CLR 27/08 A3004 RMK A01
KMHV 100800Z AUTO 28013G18KT 10SM CLR 27/09 A3004 RMK A01
KMHV 100740Z AUTO 28015G20KT 10SM CLR 27/08 A3004 RMK A01
KMHV 100720Z AUTO 27010G15KT 10SM CLR 27/08 A3005 RMK A01
KMHV 100700Z AUTO 26010KT 10SM CLR 27/08 A3005 RMK A01
KMHV 100640Z AUTO 26012KT 10SM CLR 27/08 A3005 RMK A01
KMHV 100620Z AUTO 26010KT 10SM CLR 28/08 A3005 RMK A01
KMHV 100600Z AUTO 26010G18KT 10SM CLR 28/08 A3005 RMK A01
KMHV 100540Z AUTO 27014G20KT 10SM CLR 28/08 A3004 RMK A01
KMHV 100520Z AUTO 28016G21KT 10SM CLR 28/08 A3003 RMK A01
KMHV 100500Z AUTO 28016KT 10SM CLR 28/08 A3003 RMK A01
KMHV 100440Z AUTO 28013G22KT 10SM CLR 28/08 A3002 RMK A01
KMHV 100420Z AUTO 27015KT 10SM CLR 28/08 A3002 RMK A01
KMHV 100400Z AUTO 26013KT 10SM CLR 29/08 A3001 RMK A01
KMHV 100340Z AUTO 28015KT 10SM CLR 29/07 A3001 RMK A01
KMHV 100320Z AUTO 26011KT 9SM CLR 30/06 A3000 RMK A01
KMHV 100300Z AUTO 26015KT 9SM CLR 30/06 A2999 RMK A01
KMHV 100240Z AUTO 26011KT 9SM CLR 31/07 A2999 RMK A01
KMHV 100220Z AUTO 27012KT 9SM CLR 32/06 A2998 RMK A01
KMHV 100200Z AUTO 26014G23KT 9SM CLR 33/06 A2997 RMK A01
KMHV 100140Z AUTO 22016G22KT 9SM CLR 33/06 A2996 RMK A01
KMHV 100120Z AUTO 22019KT 9SM CLR 34/05 A2996 RMK A01
KMHV 100100Z AUTO 22015G21KT 9SM CLR 34/06 A2996 RMK A01
KMHV 100040Z AUTO 23013G23KT 10SM CLR 35/06 A2996 RMK A01
KMHV 100020Z AUTO 21019G24KT 10SM CLR 35/06 A2995 RMK A01
KMHV 100000Z AUTO 24013G19KT 10SM CLR 35/05 A2996 RMK A01
KMHV 092340Z AUTO 24018G25KT 10SM CLR 35/06 A2996 RMK A01
KMHV 092320Z AUTO 22021KT 10SM CLR 36/05 A2996 RMK A01
KMHV 092300Z AUTO 22015G22KT 10SM CLR 36/07 A2997 RMK A01
KMHV 092240Z AUTO 23018KT 10SM CLR 35/07 A2997 RMK A01
KMHV 092220Z AUTO 23017G22KT 10SM CLR 36/07 A2997 RMK A01
KMHV 092200Z AUTO 21014G22KT 10SM CLR 36/08 A2998 RMK A01
KMHV 092140Z AUTO 22020KT 9SM CLR 35/08 A2999 RMK A01
KMHV 092120Z AUTO 20015G20KT 190V250 9SM CLR 36/07 A2999 RMK A01
KMHV 092100Z AUTO 20009G21KT 9SM CLR 35/07 A3000 RMK A01
KMHV 092040Z AUTO 20015KT 9SM CLR 34/05 A3001 RMK A01
KMHV 092020Z AUTO 20009G15KT 10SM CLR 35/04 A3001 RMK A01
KMHV 092000Z AUTO 20014KT 9SM CLR 34/05 A3002 RMK A01
KMHV 091940Z AUTO 20009G18KT 9SM CLR 34/02 A3003 RMK A01
KMHV 091920Z AUTO 19010G20KT 10SM CLR 34/01 A3003 RMK A01
KMHV 091900Z AUTO 23009G14KT 10SM CLR 35/01 A3003 RMK A01
KMHV 091840Z AUTO 20009G16KT 9SM CLR 34/M00 A3004 RMK A01
KMHV 091820Z AUTO 23010KT 9SM CLR 34/M04 A3004 RMK A01
KMHV 091800Z AUTO 20011KT 9SM CLR 33/M03 A3005 RMK A01
KMHV 091740Z AUTO 20008KT 9SM CLR 33/M03 A3005 RMK A01
KMHV 091720Z AUTO 20011KT 10SM CLR 32/M03 A3005 RMK A01
KMHV 091700Z AUTO 22011G16KT 10SM CLR 32/M03 A3005 RMK A01
KMHV 091640Z AUTO 20013KT 9SM CLR 31/M01 A3005 RMK A01
KMHV 091620Z AUTO 23011KT 10SM CLR 31/00 A3005 RMK A01
KMHV 091600Z AUTO 22012KT 10SM CLR 30/01 A3004 RMK A01
KMHV 091540Z AUTO 23014KT 9SM CLR 30/02 A3004 RMK A01
KMHV 091520Z AUTO 24013KT 9SM CLR 29/06 A3004 RMK A01
KMHV 091500Z AUTO 23009KT 9SM CLR 27/08 A3003 RMK A01
KMHV 091440Z AUTO 23008KT 9SM CLR 26/08 A3003 RMK A01
KMHV 091420Z AUTO 22009KT 9SM FEW055 FEW080 FEW100 25/09 A3002 RMK A01
KMHV 091400Z AUTO 23008KT 9SM FEW035 FEW055 SCT100 25/08 A3002 RMK A01
KMHV 091340Z AUTO 22008KT 9SM FEW060 FEW120 26/07 A3002 RMK A01
KMHV 091320Z AUTO 22007KT 9SM CLR 26/07 A3002 RMK A01
KMHV 091300Z AUTO 21006KT 10SM FEW046 SCT100 SCT120 26/07 A3001 RMK A01
KMHV 091240Z AUTO 22006KT 10SM BKN045 BKN120 26/07 A3000 RMK A01
KMHV 091220Z AUTO 20007KT 9SM SCT044 SCT120 26/07 A3000 RMK A01
KMHV 091200Z AUTO 20005KT 10SM CLR 25/07 A2999 RMK A01
KMHV 091140Z AUTO 23004KT 10SM FEW042 25/06 A2999 RMK A01
KMHV 091120Z AUTO 22007KT 10SM FEW042 25/06 A2999 RMK A01
KMHV 091100Z AUTO 22007KT 10SM SCT043 25/07 A2999 RMK A01
KMHV 091040Z AUTO 23007KT 10SM FEW041 25/07 A2999 RMK A01
KMHV 091020Z AUTO 22005KT 10SM SCT040 26/08 A2999 RMK A01
KMHV 091000Z AUTO 16005KT 10SM CLR 27/08 A2999 RMK A01
KMHV 090940Z AUTO 00000KT 10SM CLR 26/07 A2999 RMK A01
KMHV 090920Z AUTO 23003KT 10SM CLR 27/07 A2999 RMK A01
KMHV 090900Z AUTO 25007KT 10SM CLR 27/07 A2998 RMK A01
KMHV 090840Z AUTO 25006KT 10SM CLR 27/08 A2999 RMK A01
KMHV 090820Z AUTO 23006KT 10SM CLR 27/08 A2999 RMK A01
KMHV 090800Z AUTO 24009KT 10SM CLR 27/08 A3000 RMK A01
KMHV 090740Z AUTO 21007KT 10SM CLR 27/08 A3001 RMK A01
KMHV 090720Z AUTO 22005KT 10SM CLR 27/07 A3001 RMK A01
KMHV 090700Z AUTO 22006KT 10SM CLR 27/08 A3001 RMK A01
KMHV 090640Z AUTO 20006KT 10SM CLR 28/08 A3001 RMK A01
KMHV 090620Z AUTO 22005KT 10SM CLR 28/07 A3001 RMK A01
KMHV 090600Z AUTO 20007KT 10SM CLR 28/08 A3001 RMK A01
KMHV 090540Z AUTO 24008KT 10SM CLR 29/08 A3001 RMK A01
KMHV 090520Z AUTO 24008KT 10SM CLR 29/09 A3001 RMK A01
KMHV 090500Z AUTO 28015KT 10SM CLR 29/08 A3000 RMK A01
KMHV 090440Z AUTO 28014KT 10SM CLR 29/08 A3000 RMK A01
KMHV 090420Z AUTO 25012KT 10SM CLR 29/09 A3000 RMK A01
KMHV 090400Z AUTO 25009KT 10SM FEW110 30/10 A2999 RMK A01
KMHV 090340Z AUTO 26013KT 10SM BKN110 30/09 A2998 RMK A01
KMHV 090320Z AUTO 28013KT 9SM FEW110 30/09 A2998 RMK A01
KMHV 090300Z AUTO 28012KT 8SM CLR 31/10 A2997 RMK A01
KMHV 090240Z AUTO 28014KT 8SM CLR 31/10 A2996 RMK A01
KMHV 090220Z AUTO 28015G20KT 9SM CLR 32/10 A2996 RMK A01